createdAt,value
2022-08-30T00:01:28.354Z,20.33
2022-08-30T00:03:58.360Z,20.40
2022-08-30T00:06:28.489Z,20.39
2022-08-30T00:08:56.320Z,20.35
2022-08-30T00:11:28.325Z,20.24
2022-08-30T00:13:56.983Z,20.27
2022-08-30T00:16:26.380Z,20.34
2022-08-30T00:18:54.069Z,20.20
2022-08-30T00:21:21.373Z,20.29
2022-08-30T00:23:48.186Z,20.28
2022-08-30T00:26:15.106Z,20.29
2022-08-30T00:28:41.918Z,20.19
2022-08-30T00:31:08.912Z,20.13
2022-08-30T00:33:35.942Z,20.14
2022-08-30T00:36:03.161Z,20.19
2022-08-30T00:38:30.083Z,20.06
2022-08-30T00:40:57.352Z,20.08
2022-08-30T00:43:29.343Z,20.11
2022-08-30T00:45:57.459Z,19.92
2022-08-30T00:48:24.478Z,20.07
2022-08-30T00:51:13.026Z,20.00
2022-08-30T00:53:47.302Z,19.79
2022-08-30T00:56:14.599Z,19.95
2022-08-30T00:58:49.203Z,19.77
2022-08-30T01:01:16.670Z,19.71
2022-08-30T01:03:44.744Z,19.79
2022-08-30T01:06:15.572Z,19.71
2022-08-30T01:08:44.413Z,19.80
2022-08-30T01:11:13.725Z,19.69
2022-08-30T01:13:41.037Z,19.75
2022-08-30T01:16:08.189Z,19.71
2022-08-30T01:18:38.007Z,19.64
2022-08-30T01:21:36.885Z,19.55
2022-08-30T01:24:05.733Z,19.58
2022-08-30T01:26:34.747Z,19.54
2022-08-30T01:29:07.201Z,19.52
2022-08-30T01:31:36.907Z,19.54
2022-08-30T01:34:07.519Z,19.42
2022-08-30T01:36:44.660Z,19.35
2022-08-30T01:39:17.805Z,19.43
2022-08-30T01:41:45.491Z,19.30
2022-08-30T01:44:13.840Z,19.26
2022-08-30T01:46:46.568Z,19.13
2022-08-30T01:49:23.129Z,19.27
2022-08-30T01:52:01.148Z,19.04
2022-08-30T01:54:36.624Z,19.17
2022-08-30T01:57:07.957Z,19.16
2022-08-30T01:59:35.026Z,19.11
2022-08-30T02:02:02.592Z,19.07
2022-08-30T02:04:29.467Z,19.17
2022-08-30T02:06:56.315Z,19.04
2022-08-30T02:09:23.215Z,19.17
2022-08-30T02:11:50.341Z,19.16
2022-08-30T02:14:17.179Z,19.06
2022-08-30T02:16:48.531Z,19.06
2022-08-30T02:19:15.740Z,19.11
2022-08-30T02:21:42.535Z,19.06
2022-08-30T02:24:09.410Z,19.10
2022-08-30T02:26:36.621Z,19.01
2022-08-30T02:29:05.895Z,19.01
2022-08-30T02:31:33.282Z,18.98
2022-08-30T02:34:00.416Z,18.86
2022-08-30T02:36:27.886Z,18.88
2022-08-30T02:38:54.685Z,18.88
2022-08-30T02:41:23.694Z,18.96
2022-08-30T02:43:51.592Z,18.89
2022-08-30T02:46:18.947Z,18.79
2022-08-30T02:48:45.883Z,18.78
2022-08-30T02:51:14.396Z,18.83
2022-08-30T02:53:43.861Z,18.78
2022-08-30T02:56:13.418Z,18.78
2022-08-30T02:58:42.504Z,18.68
2022-08-30T03:01:12.320Z,18.63
2022-08-30T03:03:41.172Z,18.52
2022-08-30T03:06:08.295Z,18.52
2022-08-30T03:08:35.129Z,18.67
2022-08-30T03:11:02.735Z,18.60
2022-08-30T03:13:29.758Z,18.49
2022-08-30T03:15:57.068Z,18.61
2022-08-30T03:18:24.398Z,18.54
2022-08-30T03:20:54.613Z,18.60
2022-08-30T03:23:23.693Z,18.60
2022-08-30T03:25:51.007Z,18.42
2022-08-30T03:28:17.855Z,18.59
2022-08-30T03:30:44.687Z,18.45
2022-08-30T03:33:11.598Z,18.47
2022-08-30T03:35:38.472Z,18.32
2022-08-30T03:38:06.323Z,18.48
2022-08-30T03:40:33.327Z,18.40
2022-08-30T03:43:00.677Z,18.50
2022-08-30T03:45:27.687Z,18.63
2022-08-30T03:47:54.528Z,18.60
2022-08-30T03:50:21.349Z,18.51
2022-08-30T03:52:48.919Z,18.62
2022-08-30T03:55:15.772Z,18.29
2022-08-30T03:57:43.893Z,18.52
2022-08-30T04:00:12.769Z,18.50
2022-08-30T04:02:40.605Z,18.37
2022-08-30T04:05:09.497Z,18.40
2022-08-30T04:07:36.680Z,18.36
2022-08-30T04:10:07.000Z,18.38
2022-08-30T04:12:34.049Z,18.36
2022-08-30T04:15:00.853Z,18.34
2022-08-30T04:17:27.974Z,18.19
2022-08-30T04:19:54.853Z,18.33
2022-08-30T04:22:21.997Z,18.23
2022-08-30T04:24:48.860Z,18.27
2022-08-30T04:27:15.683Z,18.20
2022-08-30T04:29:42.529Z,18.20
2022-08-30T04:32:09.423Z,18.31
2022-08-30T04:34:36.364Z,18.21
2022-08-30T04:37:03.202Z,18.28
2022-08-30T04:39:31.073Z,18.25
2022-08-30T04:41:58.745Z,18.19
2022-08-30T04:44:27.414Z,17.99
2022-08-30T04:46:54.686Z,18.05
2022-08-30T04:49:22.859Z,18.18
2022-08-30T04:51:49.758Z,18.08
2022-08-30T04:54:17.256Z,18.14
2022-08-30T04:56:44.178Z,18.10
2022-08-30T04:59:11.021Z,18.18
2022-08-30T05:01:44.725Z,18.19
2022-08-30T05:04:13.802Z,18.17
2022-08-30T05:06:40.774Z,18.09
2022-08-30T05:09:07.585Z,18.11
2022-08-30T05:11:34.504Z,18.18
2022-08-30T05:14:01.366Z,18.20
2022-08-30T05:16:28.273Z,18.19
2022-08-30T05:18:55.147Z,18.20
2022-08-30T05:21:26.418Z,18.17
2022-08-30T05:23:59.954Z,18.26
2022-08-30T05:26:31.496Z,18.17
2022-08-30T05:28:58.899Z,18.20
2022-08-30T05:31:33.235Z,18.25
2022-08-30T05:34:00.606Z,18.16
2022-08-30T05:36:30.667Z,18.24
2022-08-30T05:38:58.119Z,18.17
2022-08-30T05:41:27.175Z,18.21
2022-08-30T05:44:00.312Z,18.29
2022-08-30T05:49:07.139Z,18.43
2022-08-30T05:51:40.214Z,18.43
2022-08-30T05:54:11.837Z,18.43
2022-08-30T05:56:41.460Z,18.50
2022-08-30T05:59:09.158Z,18.57
2022-08-30T06:01:39.967Z,18.60
2022-08-30T06:04:09.743Z,18.51
2022-08-30T06:06:39.680Z,18.65
2022-08-30T06:09:09.225Z,18.63
2022-08-30T06:11:36.784Z,18.76
2022-08-30T06:14:05.133Z,18.77
2022-08-30T06:16:32.087Z,18.73
2022-08-30T06:19:00.323Z,18.86
2022-08-30T06:21:31.389Z,18.84
2022-08-30T06:23:59.236Z,18.91
2022-08-30T06:26:28.841Z,18.96
2022-08-30T06:28:57.252Z,18.89
2022-08-30T06:31:26.045Z,18.99
2022-08-30T06:33:53.597Z,19.01
2022-08-30T06:36:23.613Z,19.03
2022-08-30T06:38:55.772Z,18.99
2022-08-30T06:41:30.736Z,19.07
2022-08-30T06:44:00.194Z,19.01
2022-08-30T06:46:32.440Z,19.14
2022-08-30T06:49:00.713Z,19.12
2022-08-30T06:51:35.481Z,19.12
2022-08-30T06:54:04.661Z,19.17
2022-08-30T06:56:31.670Z,19.26
2022-08-30T06:58:58.703Z,19.24
2022-08-30T07:01:28.860Z,19.25
2022-08-30T07:03:58.125Z,19.29
2022-08-30T07:06:26.114Z,19.41
2022-08-30T07:08:56.517Z,19.46
2022-08-30T07:11:35.838Z,19.41
2022-08-30T07:14:04.218Z,19.55
2022-08-30T07:16:31.133Z,19.48
2022-08-30T07:18:58.879Z,19.62
2022-08-30T07:21:34.721Z,19.66
2022-08-30T07:24:02.283Z,19.64
2022-08-30T07:26:35.110Z,19.74
2022-08-30T07:29:02.296Z,19.81
2022-08-30T07:31:29.945Z,19.85
2022-08-30T07:33:57.120Z,19.72
2022-08-30T07:36:24.730Z,19.64
2022-08-30T07:38:53.456Z,19.77
2022-08-30T07:41:39.154Z,20.09
2022-08-30T07:44:08.452Z,20.12
2022-08-30T07:46:36.746Z,20.21
2022-08-30T07:49:04.611Z,20.27
2022-08-30T07:51:32.552Z,20.31
2022-08-30T07:54:00.507Z,20.39
2022-08-30T07:56:27.841Z,20.42
2022-08-30T07:58:55.310Z,20.47
2022-08-30T08:01:23.597Z,20.45
2022-08-30T08:03:51.058Z,20.57
2022-08-30T08:06:21.161Z,20.47
2022-08-30T08:08:48.429Z,20.60
2022-08-30T08:11:30.390Z,20.69
2022-08-30T08:14:00.049Z,20.61
2022-08-30T08:16:29.938Z,20.74
2022-08-30T08:18:57.778Z,20.75
2022-08-30T08:21:26.260Z,20.79
2022-08-30T08:23:53.792Z,20.87
2022-08-30T08:26:21.404Z,20.96
2022-08-30T08:28:48.345Z,21.19
2022-08-30T08:31:21.590Z,21.33
2022-08-30T08:33:56.223Z,21.26
2022-08-30T08:36:23.195Z,21.28
2022-08-30T08:38:50.124Z,21.32
2022-08-30T08:42:10.116Z,21.43
2022-08-30T08:44:56.548Z,21.53
2022-08-30T08:47:48.996Z,21.60
2022-08-30T08:50:20.871Z,21.62
2022-08-30T08:53:50.432Z,21.66
2022-08-30T08:56:19.485Z,21.69
2022-08-30T08:58:51.925Z,21.76
2022-08-30T09:01:23.827Z,21.90
2022-08-30T09:03:51.784Z,22.36
2022-08-30T09:07:01.340Z,22.82
2022-08-30T09:09:35.656Z,22.66
2022-08-30T09:12:05.191Z,22.68
2022-08-30T09:14:46.159Z,22.52
2022-08-30T09:17:20.378Z,22.60
2022-08-30T09:19:53.532Z,22.65
2022-08-30T09:22:36.130Z,22.64
2022-08-30T09:25:06.565Z,22.75
2022-08-30T09:27:37.550Z,22.77
2022-08-30T09:30:21.425Z,22.72
2022-08-30T09:32:54.594Z,22.89
2022-08-30T09:35:37.588Z,22.97
2022-08-30T09:38:17.957Z,23.05
2022-08-30T09:41:02.343Z,23.24
2022-08-30T09:43:34.333Z,23.34
2022-08-30T09:46:01.468Z,23.35
2022-08-30T09:48:43.898Z,23.41
2022-08-30T09:51:10.924Z,23.48
2022-08-30T09:54:16.586Z,23.59
2022-08-30T09:56:53.359Z,23.71
2022-08-30T10:00:21.534Z,23.74
2022-08-30T10:03:35.648Z,24.09
2022-08-30T10:06:15.308Z,24.12
2022-08-30T10:08:57.656Z,24.20
2022-08-30T10:11:49.181Z,24.11
2022-08-30T10:14:34.521Z,24.46
2022-08-30T10:17:45.893Z,24.50
2022-08-30T10:20:38.812Z,24.52
2022-08-30T10:23:16.859Z,24.70
2022-08-30T10:26:19.461Z,24.83
2022-08-30T10:28:52.394Z,24.88
2022-08-30T10:31:55.334Z,25.08
2022-08-30T10:34:57.499Z,25.13
2022-08-30T10:37:29.838Z,25.18
2022-08-30T10:40:25.357Z,25.31
2022-08-30T10:42:54.168Z,25.75
2022-08-30T10:45:22.203Z,25.82
2022-08-30T10:48:19.347Z,25.81
2022-08-30T10:50:53.586Z,25.81
2022-08-30T10:54:01.969Z,25.92
2022-08-30T10:56:29.796Z,25.93
2022-08-30T10:58:59.114Z,26.04
2022-08-30T11:02:12.995Z,26.07
2022-08-30T11:05:06.712Z,26.19
2022-08-30T11:08:02.369Z,26.14
2022-08-30T11:11:13.087Z,26.12
2022-08-30T11:13:41.603Z,26.23
2022-08-30T11:16:15.777Z,26.20
2022-08-30T11:18:51.033Z,26.29
2022-08-30T11:21:24.706Z,26.42
2022-08-30T11:24:11.466Z,26.44
2022-08-30T11:26:50.801Z,26.54
2022-08-30T11:29:26.953Z,26.62
2022-08-30T11:31:56.648Z,26.54
2022-08-30T11:34:45.342Z,26.76
2022-08-30T11:37:31.162Z,26.90
2022-08-30T11:40:03.838Z,26.82
2022-08-30T11:42:32.492Z,26.99
2022-08-30T11:45:25.102Z,27.13
2022-08-30T11:48:07.302Z,27.27
2022-08-30T11:50:48.446Z,27.33
2022-08-30T11:53:46.776Z,27.54
2022-08-30T11:56:21.307Z,27.65
2022-08-30T11:59:00.117Z,27.72
2022-08-30T12:01:50.318Z,27.70
2022-08-30T12:04:37.769Z,27.57
2022-08-30T12:07:07.934Z,27.72
2022-08-30T12:09:35.210Z,27.81
2022-08-30T12:12:04.841Z,27.65
2022-08-30T12:14:48.648Z,27.61
2022-08-30T12:18:15.471Z,27.76
2022-08-30T12:20:48.839Z,27.94
2022-08-30T12:23:30.230Z,28.05
2022-08-30T12:26:51.478Z,28.00
2022-08-30T12:29:21.282Z,28.08
2022-08-30T12:31:54.173Z,28.21
2022-08-30T12:34:50.284Z,28.50
2022-08-30T12:37:25.940Z,28.35
2022-08-30T12:40:21.023Z,28.22
2022-08-30T12:43:06.046Z,28.16
2022-08-30T12:45:42.956Z,28.10
2022-08-30T12:48:14.614Z,28.09
2022-08-30T12:50:59.198Z,27.95
2022-08-30T12:53:42.786Z,27.82
2022-08-30T12:56:21.261Z,27.86
2022-08-30T12:59:02.053Z,27.75
2022-08-30T13:01:36.232Z,27.80
2022-08-30T13:04:22.294Z,27.66
2022-08-30T13:06:55.978Z,27.86
2022-08-30T13:09:32.222Z,27.70
2022-08-30T13:12:06.969Z,27.71
2022-08-30T13:14:37.363Z,27.68
2022-08-30T13:17:18.905Z,27.79
2022-08-30T13:20:24.523Z,27.80
2022-08-30T13:23:10.676Z,27.85
2022-08-30T13:25:39.645Z,27.98
2022-08-30T13:28:07.950Z,27.87
2022-08-30T13:30:35.828Z,27.85
2022-08-30T13:33:02.924Z,27.87
2022-08-30T13:35:31.057Z,27.97
2022-08-30T13:38:00.099Z,28.31
2022-08-30T13:40:27.069Z,28.34
2022-08-30T13:42:54.027Z,28.21
2022-08-30T13:48:07.948Z,28.49
2022-08-30T13:50:34.875Z,28.69
2022-08-30T13:53:01.706Z,28.82
2022-08-30T13:55:29.054Z,29.01
2022-08-30T13:57:57.252Z,28.86
2022-08-30T14:00:25.826Z,28.84
2022-08-30T14:02:55.953Z,28.55
2022-08-30T14:05:48.386Z,28.37
2022-08-30T14:11:11.741Z,28.66
2022-08-30T14:16:31.283Z,28.28
2022-08-30T14:19:00.078Z,28.25
2022-08-30T14:21:27.705Z,28.30
2022-08-30T14:23:56.864Z,28.25
2022-08-30T14:26:45.203Z,28.20
2022-08-30T14:29:16.449Z,28.07
2022-08-30T14:31:44.557Z,28.14
2022-08-30T14:34:12.169Z,28.06
2022-08-30T14:36:42.264Z,28.11
2022-08-30T14:39:15.035Z,28.02
2022-08-30T14:41:47.406Z,28.02
2022-08-30T14:44:16.309Z,27.96
2022-08-30T14:46:44.099Z,28.06
2022-08-30T14:49:12.589Z,28.08
2022-08-30T14:51:40.560Z,28.04
2022-08-30T14:54:07.739Z,27.96
2022-08-30T14:56:38.090Z,28.11
2022-08-30T14:59:05.244Z,28.12
2022-08-30T15:01:33.934Z,28.10
2022-08-30T15:04:07.290Z,28.12
2022-08-30T15:06:36.367Z,28.19
2022-08-30T15:09:04.359Z,28.02
2022-08-30T15:11:31.417Z,28.02
2022-08-30T15:14:00.275Z,28.08
2022-08-30T15:16:33.010Z,28.14
2022-08-30T15:19:00.331Z,28.13
2022-08-30T15:21:35.270Z,28.12
2022-08-30T15:24:03.788Z,28.42
2022-08-30T15:26:30.992Z,28.72
2022-08-30T15:28:57.889Z,28.94
2022-08-30T15:31:28.447Z,28.75
2022-08-30T15:33:55.530Z,28.66
2022-08-30T15:36:25.260Z,28.54
2022-08-30T15:38:55.776Z,28.53
2022-08-30T15:41:23.826Z,28.46
2022-08-30T15:43:52.763Z,28.50
2022-08-30T15:46:32.094Z,28.42
2022-08-30T15:49:10.513Z,28.35
2022-08-30T15:51:41.576Z,28.25
2022-08-30T15:54:11.664Z,28.19
2022-08-30T15:56:39.348Z,28.15
2022-08-30T15:59:07.082Z,28.12
2022-08-30T16:01:34.469Z,28.05
2022-08-30T16:04:02.014Z,27.97
2022-08-30T16:06:34.717Z,28.03
2022-08-30T16:09:01.783Z,27.91
2022-08-30T16:11:28.614Z,28.06
2022-08-30T16:13:57.390Z,28.03
2022-08-30T16:16:25.141Z,28.02
2022-08-30T16:18:54.223Z,27.99
2022-08-30T16:21:33.318Z,27.89
2022-08-30T16:24:03.636Z,27.81
2022-08-30T16:26:32.842Z,27.76
2022-08-30T16:28:59.898Z,27.67
2022-08-30T16:31:30.297Z,27.68
2022-08-30T16:34:02.832Z,27.62
2022-08-30T16:36:33.070Z,27.54
2022-08-30T16:38:59.916Z,27.45
2022-08-30T16:41:27.085Z,27.47
2022-08-30T16:43:55.119Z,27.39
2022-08-30T16:46:27.176Z,27.41
2022-08-30T16:48:57.885Z,27.39
2022-08-30T16:51:28.411Z,27.28
2022-08-30T16:53:57.755Z,27.34
2022-08-30T16:56:26.851Z,27.32
2022-08-30T16:59:01.182Z,27.19
2022-08-30T17:01:31.771Z,27.15
2022-08-30T17:03:59.377Z,27.11
2022-08-30T17:06:26.828Z,27.16
2022-08-30T17:08:56.210Z,27.10
2022-08-30T17:11:23.803Z,27.03
2022-08-30T17:13:51.106Z,27.04
2022-08-30T17:16:22.326Z,26.99
2022-08-30T17:18:55.675Z,26.83
2022-08-30T17:21:23.285Z,26.83
2022-08-30T17:23:50.738Z,26.82
2022-08-30T17:26:18.575Z,26.78
2022-08-30T17:28:45.733Z,26.75
2022-08-30T17:31:14.904Z,26.70
2022-08-30T17:33:43.158Z,26.58
2022-08-30T17:36:12.856Z,26.61
2022-08-30T17:38:40.025Z,26.57
2022-08-30T17:41:12.017Z,26.53
2022-08-30T17:43:39.216Z,26.49
2022-08-30T17:46:18.391Z,26.43
2022-08-30T17:48:46.066Z,26.30
2022-08-30T17:51:13.225Z,26.21
2022-08-30T17:53:40.106Z,26.31
2022-08-30T17:56:10.006Z,26.22
2022-08-30T17:58:36.941Z,26.22
2022-08-30T18:01:14.358Z,26.19
2022-08-30T18:03:42.166Z,26.08
2022-08-30T18:06:13.632Z,25.95
2022-08-30T18:08:41.162Z,26.07
2022-08-30T18:11:08.662Z,26.05
2022-08-30T18:13:35.602Z,26.03
2022-08-30T18:16:04.047Z,25.97
2022-08-30T18:18:31.512Z,25.85
2022-08-30T18:21:00.015Z,25.89
2022-08-30T18:23:28.061Z,25.86
2022-08-30T18:25:59.027Z,25.78
2022-08-30T18:28:26.521Z,25.71
2022-08-30T18:30:56.724Z,25.73
2022-08-30T18:33:25.283Z,25.59
2022-08-30T18:35:53.515Z,25.66
2022-08-30T18:38:23.789Z,25.61
2022-08-30T18:40:52.666Z,25.57
2022-08-30T18:43:24.601Z,25.49
2022-08-30T18:45:57.514Z,25.51
2022-08-30T18:48:27.219Z,25.49
2022-08-30T18:50:55.445Z,25.37
2022-08-30T18:53:28.627Z,25.40
2022-08-30T18:55:57.175Z,25.28
2022-08-30T18:58:24.057Z,25.35
2022-08-30T19:00:51.069Z,25.31
2022-08-30T19:03:18.789Z,25.29
2022-08-30T19:05:46.077Z,25.27
2022-08-30T19:08:13.624Z,25.11
2022-08-30T19:10:41.185Z,25.06
2022-08-30T19:13:09.046Z,25.09
2022-08-30T19:15:36.446Z,25.06
2022-08-30T19:18:16.711Z,25.07
2022-08-30T19:20:45.974Z,24.98
2022-08-30T19:23:14.523Z,25.01
2022-08-30T19:25:41.809Z,24.89
2022-08-30T19:28:10.187Z,24.94
2022-08-30T19:30:37.648Z,24.92
2022-08-30T19:33:05.739Z,24.80
2022-08-30T19:35:33.589Z,24.76
2022-08-30T19:38:00.639Z,24.77
2022-08-30T19:40:28.331Z,24.81
2022-08-30T19:42:55.410Z,24.76
2022-08-30T19:45:23.244Z,24.70
2022-08-30T19:47:50.960Z,24.72
2022-08-30T19:50:19.037Z,24.64
2022-08-30T19:52:52.751Z,24.64
2022-08-30T19:55:23.751Z,24.59
2022-08-30T19:57:55.992Z,24.54
2022-08-30T20:00:23.373Z,24.54
2022-08-30T20:02:51.279Z,24.52
2022-08-30T20:05:19.165Z,24.40
2022-08-30T20:07:48.413Z,24.38
2022-08-30T20:10:19.813Z,24.40
2022-08-30T20:12:49.860Z,24.32
2022-08-30T20:15:18.292Z,24.34
2022-08-30T20:18:03.438Z,24.27
2022-08-30T20:20:33.473Z,24.34
2022-08-30T20:23:03.509Z,24.25
2022-08-30T20:25:30.934Z,24.23
2022-08-30T20:27:59.331Z,24.18
2022-08-30T20:30:26.157Z,24.17
2022-08-30T20:32:54.636Z,24.06
2022-08-30T20:35:23.753Z,24.18
2022-08-30T20:37:50.967Z,24.20
2022-08-30T20:40:18.918Z,24.10
2022-08-30T20:42:46.627Z,24.03
2022-08-30T20:45:15.978Z,23.92
2022-08-30T20:47:43.443Z,23.88
2022-08-30T20:50:14.609Z,23.84
2022-08-30T20:52:42.258Z,23.83
2022-08-30T20:55:11.221Z,23.76
2022-08-30T20:57:39.176Z,23.74
2022-08-30T21:00:11.494Z,23.72
2022-08-30T21:02:46.258Z,23.70
2022-08-30T21:05:15.466Z,23.63
2022-08-30T21:07:45.811Z,23.71
2022-08-30T21:10:13.716Z,23.68
2022-08-30T21:12:40.678Z,23.65
2022-08-30T21:15:33.840Z,23.65
2022-08-30T21:17:55.542Z,23.60
2022-08-30T21:20:22.542Z,23.59
2022-08-30T21:22:49.538Z,23.58
2022-08-30T21:25:16.358Z,23.38
2022-08-30T21:27:43.954Z,23.47
2022-08-30T21:30:12.900Z,23.37
2022-08-30T21:32:39.965Z,23.38
2022-08-30T21:35:26.844Z,23.44
2022-08-30T21:37:54.078Z,23.40
2022-08-30T21:40:21.117Z,23.32
2022-08-30T21:42:47.964Z,23.25
2022-08-30T21:45:15.401Z,23.35
2022-08-30T21:47:42.378Z,23.30
2022-08-30T21:50:09.575Z,23.21
2022-08-30T21:52:36.406Z,23.23
2022-08-30T21:55:04.513Z,23.21
2022-08-30T21:57:32.429Z,23.16
2022-08-30T21:59:59.265Z,22.96
2022-08-30T22:02:26.445Z,22.99
2022-08-30T22:04:53.391Z,23.09
2022-08-30T22:07:20.227Z,23.13
2022-08-30T22:09:47.106Z,23.05
2022-08-30T22:12:14.059Z,22.91
2022-08-30T22:14:41.039Z,22.98
2022-08-30T22:17:07.945Z,22.99
2022-08-30T22:19:34.805Z,23.02
2022-08-30T22:22:02.010Z,23.05
2022-08-30T22:24:32.506Z,23.01
2022-08-30T22:27:03.387Z,22.98
2022-08-30T22:29:30.433Z,22.97
2022-08-30T22:31:57.329Z,22.95
2022-08-30T22:34:24.587Z,22.84
2022-08-30T22:36:51.574Z,22.92
2022-08-30T22:39:18.516Z,22.88
2022-08-30T22:41:47.218Z,22.90
2022-08-30T22:44:14.071Z,22.85
2022-08-30T22:46:40.910Z,22.77
2022-08-30T22:49:09.803Z,22.86
2022-08-30T22:51:38.038Z,22.82
2022-08-30T22:54:07.489Z,22.81
2022-08-30T22:56:36.728Z,22.64
2022-08-30T22:59:04.293Z,22.79
2022-08-30T23:01:43.062Z,22.75
2022-08-30T23:04:11.280Z,22.79
2022-08-30T23:06:38.233Z,22.78
2022-08-30T23:09:06.690Z,22.79
2022-08-30T23:11:34.565Z,22.75
2022-08-30T23:14:03.505Z,22.66
2022-08-30T23:16:30.655Z,22.61
2022-08-30T23:18:57.610Z,22.52
2022-08-30T23:21:28.794Z,22.54
2022-08-30T23:24:15.312Z,22.42
2022-08-30T23:27:03.374Z,22.56
2022-08-30T23:29:50.129Z,22.53
2022-08-30T23:32:36.247Z,22.49
2022-08-30T23:35:29.445Z,22.50
2022-08-30T23:38:21.025Z,22.48
2022-08-30T23:41:06.798Z,22.48
2022-08-30T23:43:52.029Z,22.41
2022-08-30T23:46:39.508Z,22.45
2022-08-30T23:49:25.032Z,22.50
2022-08-30T23:52:10.513Z,22.64
2022-08-30T23:54:57.510Z,22.55
2022-08-30T23:57:44.888Z,22.52
